Time;durP1;ratioP1;P1;durP2;ratioP2;P2;SDS_P1;SDS_P2;PMS_P1;PMS_P2;Temp;Humidity;BMP_temperature;BMP_pressure;BME280_temperature;BME280_humidity;BME280_pressure;Samples;Min_cycle;Max_cycle;Signal;HPM_P1;HPM_P2
2021/08/27 00:00:48;;;;;;;10.48;2.78;;;16.20;99.90;;;;;;5039262;28;20160;-86
2021/08/27 00:03:14;;;;;;;7.68;2.90;;;16.00;99.90;;;;;;5039347;28;20263;-85
2021/08/27 00:05:39;;;;;;;13.75;2.90;;;15.90;99.90;;;;;;5041731;28;20156;-87
2021/08/27 00:08:05;;;;;;;13.18;3.60;;;15.80;99.90;;;;;;5053608;28;20203;-82
2021/08/27 00:10:31;;;;;;;7.47;3.15;;;15.90;99.90;;;;;;5054003;28;20227;-82
2021/08/27 00:12:57;;;;;;;14.98;3.03;;;16.00;99.90;;;;;;5049383;28;20168;-82
2021/08/27 00:15:23;;;;;;;6.85;2.95;;;16.10;99.90;;;;;;5040561;28;20168;-86
2021/08/27 00:17:49;;;;;;;8.00;2.90;;;15.90;99.90;;;;;;5036025;28;20322;-83
2021/08/27 00:20:15;;;;;;;8.35;2.67;;;15.80;99.90;;;;;;5035462;28;20168;-85
2021/08/27 00:22:43;;;;;;;16.25;2.95;;;15.80;99.90;;;;;;5035585;28;20198;-86
2021/08/27 00:25:09;;;;;;;6.13;2.20;;;15.80;99.90;;;;;;5036467;28;20172;-82
2021/08/27 00:27:35;;;;;;;5.97;2.20;;;15.90;99.90;;;;;;5034989;28;20272;-86
2021/08/27 00:30:01;;;;;;;13.45;2.72;;;15.90;99.90;;;;;;5035483;28;20272;-84
2021/08/27 00:32:27;;;;;;;8.30;2.55;;;16.00;99.90;;;;;;5036542;28;20291;-86
2021/08/27 00:34:53;;;;;;;10.50;3.15;;;16.00;99.90;;;;;;5035379;28;20168;-85
2021/08/27 00:37:19;;;;;;;3.78;2.13;;;16.10;99.90;;;;;;5035556;28;20195;-83
2021/08/27 00:39:46;;;;;;;5.93;2.22;;;16.20;99.90;;;;;;5036523;28;20170;-86
2021/08/27 00:42:11;;;;;;;6.20;1.65;;;16.20;99.90;;;;;;5037133;28;20571;-86
2021/08/27 00:44:37;;;;;;;5.47;1.83;;;16.10;99.90;;;;;;5037295;28;20184;-85
2021/08/27 00:47:03;;;;;;;7.75;2.35;;;16.20;99.90;;;;;;5037005;28;20223;-87
2021/08/27 00:49:30;;;;;;;7.82;2.10;;;16.10;99.90;;;;;;5039160;28;20251;-86
2021/08/27 00:51:55;;;;;;;8.65;1.90;;;16.00;99.90;;;;;;5039948;28;20207;-86
2021/08/27 00:54:21;;;;;;;5.85;1.77;;;15.80;99.90;;;;;;5043027;28;20279;-84
2021/08/27 00:56:48;;;;;;;4.15;1.77;;;15.70;99.90;;;;;;5048843;28;20184;-85
2021/08/27 00:59:13;;;;;;;9.13;2.25;;;15.80;99.90;;;;;;5051485;28;20191;-86
2021/08/27 01:01:39;;;;;;;6.22;1.50;;;15.70;99.90;;;;;;5052763;28;20175;-87
2021/08/27 01:04:05;;;;;;;4.18;1.70;;;15.80;99.90;;;;;;5052172;28;20172;-82
2021/08/27 01:06:52;;;;;;;5.03;1.67;;;15.80;99.90;;;;;;5048762;28;20667;-82
2021/08/27 01:09:25;;;;;;;3.42;1.65;;;15.70;99.90;;;;;;5034138;28;20620;-84
2021/08/27 01:12:15;;;;;;;11.77;1.73;;;15.60;99.90;;;;;;5035484;28;20671;-86
2021/08/27 01:14:49;;;;;;;5.07;1.35;;;15.50;99.90;;;;;;5043621;28;20220;-84
2021/08/27 01:17:19;;;;;;;3.97;1.60;;;15.40;99.90;;;;;;5057764;28;20190;-84
2021/08/27 01:20:07;;;;;;;5.70;1.52;;;15.50;99.90;;;;;;5057457;28;20152;-86
2021/08/27 01:22:50;;;;;;;4.68;1.52;;;15.50;99.90;;;;;;5054278;28;20187;-87
2021/08/27 01:25:18;;;;;;;7.80;2.00;;;15.60;99.90;;;;;;5037326;28;20164;-87
2021/08/27 01:27:46;;;;;;;10.82;1.85;;;15.70;99.90;;;;;;5036977;28;20660;-87
2021/08/27 01:30:17;;;;;;;3.53;1.60;;;15.90;99.90;;;;;;5035410;28;20211;-88
2021/08/27 01:33:18;;;;;;;5.03;1.80;;;15.90;99.90;;;;;;5036683;28;20199;-87
2021/08/27 01:36:08;;;;;;;5.35;1.48;;;16.00;99.90;;;;;;5035798;28;20171;-87
2021/08/27 01:38:42;;;;;;;3.88;1.73;;;15.60;99.90;;;;;;5034062;28;20234;-86
2021/08/27 01:41:11;;;;;;;6.22;2.00;;;15.70;99.90;;;;;;5034975;28;20238;-86
2021/08/27 01:43:40;;;;;;;6.50;1.48;;;15.40;99.90;;;;;;5035012;28;20285;-86
2021/08/27 01:46:07;;;;;;;7.30;1.63;;;15.40;99.90;;;;;;5033525;28;20179;-85
2021/08/27 01:48:37;;;;;;;3.47;1.20;;;15.30;99.90;;;;;;5033376;28;20184;-86
2021/08/27 01:51:04;;;;;;;2.08;1.45;;;15.20;99.90;;;;;;5033024;28;20203;-83
2021/08/27 01:53:31;;;;;;;5.45;1.50;;;15.10;99.90;;;;;;5033544;28;20211;-85
2021/08/27 01:55:58;;;;;;;12.35;1.45;;;15.30;99.90;;;;;;5034454;28;20164;-85
2021/08/27 01:58:26;;;;;;;2.83;1.38;;;15.30;99.90;;;;;;5033135;28;20285;-85
2021/08/27 02:00:54;;;;;;;5.22;1.70;;;15.50;99.90;;;;;;5033075;28;20255;-85
2021/08/27 02:03:21;;;;;;;3.63;1.98;;;15.30;99.90;;;;;;5033123;28;20175;-86
2021/08/27 02:05:48;;;;;;;2.85;1.48;;;15.20;99.90;;;;;;5033321;28;20255;-86
2021/08/27 02:08:16;;;;;;;2.25;1.30;;;15.30;99.90;;;;;;5032577;28;20250;-83
2021/08/27 02:10:43;;;;;;;1.10;1.00;;;15.40;99.90;;;;;;5032791;28;20291;-86
2021/08/27 02:13:09;;;;;;;3.47;1.70;;;15.40;99.90;;;;;;5032400;28;20183;-86
2021/08/27 02:15:36;;;;;;;1.98;1.33;;;15.20;99.90;;;;;;5032963;28;20203;-83
2021/08/27 02:18:01;;;;;;;4.35;1.35;;;15.20;99.90;;;;;;5033154;28;20190;-83
2021/08/27 02:20:28;;;;;;;4.95;1.33;;;15.30;99.90;;;;;;5034421;28;20168;-85
2021/08/27 02:22:55;;;;;;;4.85;1.70;;;15.30;99.90;;;;;;5032778;28;20171;-86
2021/08/27 02:25:26;;;;;;;3.53;0.98;;;15.00;99.90;;;;;;5032661;28;20172;-86
2021/08/27 02:27:54;;;;;;;7.72;1.50;;;15.00;99.90;;;;;;5032103;28;20547;-82
2021/08/27 02:30:21;;;;;;;7.35;1.55;;;14.90;99.90;;;;;;5033640;28;20179;-86
2021/08/27 02:32:49;;;;;;;8.50;1.70;;;15.00;99.90;;;;;;5033724;28;20258;-87
2021/08/27 02:35:16;;;;;;;2.42;1.45;;;15.20;99.90;;;;;;5033715;28;20620;-85
2021/08/27 02:37:43;;;;;;;2.50;1.83;;;15.30;99.90;;;;;;5033711;28;20192;-86
2021/08/27 02:40:09;;;;;;;2.50;1.23;;;15.20;99.90;;;;;;5032157;28;20258;-86
2021/08/27 02:42:36;;;;;;;6.88;2.05;;;15.00;99.90;;;;;;5033619;28;20195;-86
2021/08/27 02:45:04;;;;;;;1.55;0.98;;;14.90;99.90;;;;;;5033465;28;20691;-83
2021/08/27 02:47:31;;;;;;;4.38;1.70;;;15.10;99.90;;;;;;5034079;28;20203;-87
2021/08/27 02:49:57;;;;;;;6.65;1.50;;;15.00;99.90;;;;;;5032358;28;20164;-87
2021/08/27 02:52:34;;;;;;;2.65;1.20;;;15.20;99.90;;;;;;5033259;28;20239;-86
2021/08/27 02:55:06;;;;;;;4.15;1.67;;;15.30;99.90;;;;;;5033396;28;20164;-86
2021/08/27 02:57:45;;;;;;;2.85;1.48;;;15.30;99.90;;;;;;5033602;28;20187;-86
2021/08/27 03:00:12;;;;;;;9.60;1.30;;;15.30;99.90;;;;;;5033435;28;20620;-83
2021/08/27 03:02:40;;;;;;;8.45;1.35;;;15.30;99.90;;;;;;5033574;28;20629;-85
2021/08/27 03:05:12;;;;;;;5.78;1.50;;;15.30;99.90;;;;;;5033407;28;20250;-83
2021/08/27 03:07:42;;;;;;;2.42;1.35;;;15.20;99.90;;;;;;5032109;28;20184;-85
2021/08/27 03:10:39;;;;;;;16.73;2.15;;;15.30;99.90;;;;;;5033540;28;20176;-86
2021/08/27 03:13:26;;;;;;;3.83;1.30;;;15.30;99.90;;;;;;5033592;28;20192;-86
2021/08/27 03:16:01;;;;;;;3.40;1.50;;;15.50;99.90;;;;;;5032863;28;20156;-86
2021/08/27 03:18:44;;;;;;;5.25;2.05;;;15.60;99.90;;;;;;5032348;28;20187;-85
2021/08/27 03:21:28;;;;;;;5.50;1.77;;;15.70;99.90;;;;;;5032203;28;20160;-86
2021/08/27 03:23:59;;;;;;;2.05;1.45;;;15.40;99.90;;;;;;5032347;28;20286;-86
2021/08/27 03:26:29;;;;;;;4.13;1.50;;;15.20;99.90;;;;;;5032759;28;20164;-85
2021/08/27 03:28:59;;;;;;;6.22;1.70;;;15.20;99.90;;;;;;5033001;28;20574;-83
2021/08/27 03:31:27;;;;;;;8.15;1.40;;;15.10;99.90;;;;;;5032807;28;20210;-87
2021/08/27 03:33:55;;;;;;;3.67;1.52;;;15.00;99.90;;;;;;5032482;28;20653;-86
2021/08/27 03:36:24;;;;;;;6.82;1.65;;;15.20;99.90;;;;;;5031801;28;20164;-82
2021/08/27 03:38:51;;;;;;;4.47;1.75;;;15.10;99.90;;;;;;5034453;28;20222;-87
2021/08/27 03:41:18;;;;;;;3.95;1.73;;;15.30;99.90;;;;;;5035361;28;20176;-84
2021/08/27 03:43:45;;;;;;;6.93;1.63;;;15.30;99.90;;;;;;5036175;28;20168;-83
2021/08/27 03:46:12;;;;;;;4.90;1.70;;;15.10;99.90;;;;;;5035349;28;20199;-87
2021/08/27 03:48:38;;;;;;;7.38;2.28;;;15.00;99.90;;;;;;5035465;28;20168;-87
2021/08/27 03:51:04;;;;;;;4.63;2.40;;;15.10;99.90;;;;;;5036558;28;20214;-85
2021/08/27 03:53:32;;;;;;;4.85;1.80;;;15.10;99.90;;;;;;5035346;28;20198;-86
2021/08/27 03:55:59;;;;;;;4.00;1.88;;;15.10;99.90;;;;;;5035315;28;20262;-87
2021/08/27 03:58:25;;;;;;;6.78;2.78;;;15.10;99.90;;;;;;5036120;28;20183;-87
2021/08/27 04:00:52;;;;;;;11.57;2.72;;;15.00;99.90;;;;;;5035284;28;20641;-87
2021/08/27 04:03:21;;;;;;;10.32;2.42;;;15.20;99.90;;;;;;5036103;28;20171;-87
2021/08/27 04:06:07;;;;;;;4.45;2.30;;;15.10;99.90;;;;;;5034984;28;20160;-83
2021/08/27 04:08:38;;;;;;;3.25;1.60;;;15.00;99.90;;;;;;5034843;28;20273;-84
2021/08/27 04:11:06;;;;;;;4.15;1.90;;;15.00;99.90;;;;;;5035895;28;20203;-85
2021/08/27 04:13:32;;;;;;;8.40;2.08;;;14.90;99.90;;;;;;5035816;28;20298;-84
2021/08/27 04:15:57;;;;;;;6.90;2.13;;;14.70;99.90;;;;;;5036234;28;20660;-84
2021/08/27 04:18:23;;;;;;;7.30;1.95;;;14.70;99.90;;;;;;5035284;28;20202;-85
2021/08/27 04:20:49;;;;;;;5.03;1.92;;;14.80;99.90;;;;;;5036401;28;20179;-84
2021/08/27 04:23:15;;;;;;;2.60;1.60;;;14.70;99.90;;;;;;5035716;28;20170;-82
2021/08/27 04:25:40;;;;;;;6.32;1.85;;;14.70;99.90;;;;;;5036899;28;20578;-86
2021/08/27 04:28:08;;;;;;;6.15;2.40;;;14.70;99.90;;;;;;5038245;23;20221;-82
2021/08/27 04:30:34;;;;;;;7.93;2.03;;;14.80;99.90;;;;;;5014610;28;20226;-83
2021/08/27 04:33:00;;;;;;;5.85;2.13;;;14.70;99.90;;;;;;5015538;28;20168;-83
2021/08/27 04:35:26;;;;;;;7.93;2.30;;;14.70;99.90;;;;;;5014333;28;20658;-85
2021/08/27 04:37:53;;;;;;;14.73;3.60;;;14.80;99.90;;;;;;5014945;28;20192;-84
2021/08/27 04:40:20;;;;;;;6.85;1.88;;;14.70;99.90;;;;;;5014193;28;20176;-84
2021/08/27 04:42:45;;;;;;;4.75;2.65;;;14.90;99.90;;;;;;5014750;28;20267;-85
2021/08/27 04:45:11;;;;;;;9.32;2.00;;;14.80;99.90;;;;;;5015168;28;20196;-85
2021/08/27 04:47:37;;;;;;;7.95;2.28;;;14.90;99.90;;;;;;5014823;28;20196;-84
2021/08/27 04:50:04;;;;;;;9.13;2.30;;;14.80;99.90;;;;;;5014735;28;20195;-84
2021/08/27 04:52:29;;;;;;;7.05;2.03;;;14.60;99.90;;;;;;5014492;28;20250;-83
2021/08/27 04:54:55;;;;;;;5.03;2.13;;;14.70;99.90;;;;;;5014407;28;20208;-83
2021/08/27 04:57:21;;;;;;;7.30;1.98;;;14.70;99.90;;;;;;5014599;28;20196;-84
2021/08/27 04:59:47;;;;;;;11.18;1.90;;;14.70;99.90;;;;;;5015486;28;20168;-83
2021/08/27 05:02:13;;;;;;;10.75;7.25;;;14.70;99.90;;;;;;5015000;28;20175;-83
2021/08/27 05:04:39;;;;;;;8.38;3.75;;;14.70;99.90;;;;;;5014769;28;20173;-84
2021/08/27 05:07:05;;;;;;;10.10;2.30;;;14.60;99.90;;;;;;5013306;28;21091;-83
2021/08/27 05:09:31;;;;;;;7.47;2.65;;;14.60;99.90;;;;;;5012922;28;20646;-84
2021/08/27 05:11:56;;;;;;;13.60;8.70;;;14.70;99.90;;;;;;5012761;28;20411;-83
2021/08/27 05:14:22;;;;;;;18.63;2.92;;;14.70;99.90;;;;;;5014014;28;20169;-84
2021/08/27 05:16:48;;;;;;;8.25;2.28;;;14.70;99.90;;;;;;5012761;28;20216;-83
2021/08/27 05:19:14;;;;;;;12.23;4.38;;;14.60;99.90;;;;;;5012796;28;20315;-83
2021/08/27 05:21:39;;;;;;;170.90;15.60;;;14.60;99.90;;;;;;5012974;28;20172;-84
2021/08/27 05:24:06;;;;;;;263.33;30.08;;;14.60;99.90;;;;;;5014292;28;20180;-83
2021/08/27 05:26:32;;;;;;;64.10;5.28;;;14.80;99.90;;;;;;5012870;28;20195;-83
2021/08/27 05:28:57;;;;;;;27.85;4.57;;;14.80;99.90;;;;;;5014063;28;20193;-83
2021/08/27 05:31:23;;;;;;;18.20;3.53;;;14.80;99.90;;;;;;5012831;28;20211;-84
2021/08/27 05:33:49;;;;;;;7.90;2.88;;;14.80;99.90;;;;;;5013756;28;20271;-83
2021/08/27 05:36:14;;;;;;;11.40;2.50;;;14.60;99.90;;;;;;5014016;28;20251;-82
2021/08/27 05:38:40;;;;;;;4.95;1.92;;;14.80;99.90;;;;;;5012234;28;20177;-83
2021/08/27 05:41:06;;;;;;;7.82;2.15;;;14.90;99.90;;;;;;5014011;28;20617;-83
2021/08/27 05:43:32;;;;;;;5.57;1.92;;;14.90;99.90;;;;;;5013570;28;20168;-83
2021/08/27 05:45:58;;;;;;;4.60;2.25;;;15.00;99.90;;;;;;5012288;28;20165;-83
2021/08/27 05:48:24;;;;;;;8.65;2.67;;;15.10;99.90;;;;;;5013503;28;20658;-83
2021/08/27 05:50:50;;;;;;;16.48;2.25;;;15.20;99.90;;;;;;5011766;28;20291;-82
2021/08/27 05:53:16;;;;;;;9.52;1.90;;;15.40;99.90;;;;;;5015561;28;20169;-85
2021/08/27 05:55:41;;;;;;;10.45;1.95;;;15.40;99.90;;;;;;5023902;28;20200;-84
2021/08/27 05:58:07;;;;;;;8.45;1.35;;;15.50;99.90;;;;;;5017136;28;20188;-81
2021/08/27 06:00:33;;;;;;;6.15;2.08;;;15.60;99.90;;;;;;5025263;28;20165;-78
2021/08/27 06:02:59;;;;;;;6.72;2.03;;;15.70;99.90;;;;;;5030030;28;20169;-85
2021/08/27 06:05:25;;;;;;;5.43;2.00;;;15.60;99.90;;;;;;5021143;28;20686;-85
2021/08/27 06:07:50;;;;;;;3.97;2.22;;;15.40;99.90;;;;;;5022826;28;20196;-83
2021/08/27 06:10:16;;;;;;;6.88;2.05;;;15.50;99.90;;;;;;5019345;28;20195;-84
2021/08/27 06:12:42;;;;;;;3.97;1.98;;;15.50;99.90;;;;;;5024562;28;20208;-84
2021/08/27 06:15:09;;;;;;;14.43;2.03;;;15.60;99.90;;;;;;5025494;28;20169;-85
2021/08/27 06:17:35;;;;;;;12.80;1.40;;;15.70;99.90;;;;;;5022273;28;20283;-84
2021/08/27 06:20:00;;;;;;;2.63;1.50;;;15.90;99.90;;;;;;5022832;28;20176;-85
2021/08/27 06:22:26;;;;;;;2.35;1.33;;;15.80;99.90;;;;;;5021729;28;20183;-86
2021/08/27 06:24:52;;;;;;;5.90;1.40;;;15.80;99.90;;;;;;5021692;28;20203;-84
2021/08/27 06:27:17;;;;;;;8.18;2.10;;;15.90;99.90;;;;;;5016159;28;20207;-86
2021/08/27 06:29:43;;;;;;;1.05;0.85;;;16.10;99.90;;;;;;5015522;28;20176;-87
2021/08/27 06:32:09;;;;;;;8.15;1.60;;;16.10;99.90;;;;;;5013730;28;20200;-82
2021/08/27 06:34:35;;;;;;;9.95;2.45;;;16.20;99.90;;;;;;5013003;28;20217;-84
2021/08/27 06:37:01;;;;;;;9.15;2.45;;;16.20;99.90;;;;;;5012033;28;20192;-85
2021/08/27 06:39:27;;;;;;;15.05;1.63;;;16.20;99.90;;;;;;5012929;28;20165;-83
2021/08/27 06:41:53;;;;;;;8.30;1.60;;;16.30;99.90;;;;;;5014806;28;20168;-85
2021/08/27 06:44:18;;;;;;;3.83;1.60;;;16.40;99.90;;;;;;5012422;28;20264;-82
2021/08/27 06:46:44;;;;;;;12.07;1.75;;;16.50;99.90;;;;;;5012082;28;20196;-84
2021/08/27 06:49:11;;;;;;;5.05;1.48;;;16.50;99.90;;;;;;5012916;28;20263;-84
2021/08/27 06:51:39;;;;;;;12.00;1.88;;;16.50;99.90;;;;;;5011581;28;20207;-81
2021/08/27 06:54:04;;;;;;;7.75;1.55;;;16.60;99.90;;;;;;5011281;28;20528;-80
2021/08/27 06:56:30;;;;;;;7.95;1.42;;;16.50;99.90;;;;;;5004533;28;20286;-80
2021/08/27 06:58:56;;;;;;;7.78;1.77;;;16.50;99.90;;;;;;5010653;28;20272;-81
2021/08/27 07:01:21;;;;;;;11.50;1.77;;;16.50;99.90;;;;;;5010989;28;20168;-83
2021/08/27 07:03:47;;;;;;;3.30;1.20;;;16.60;99.90;;;;;;5012988;28;20169;-84
2021/08/27 07:06:13;;;;;;;4.97;1.15;;;16.60;99.90;;;;;;5010976;28;20191;-83
2021/08/27 07:08:40;;;;;;;2.85;0.90;;;16.60;99.90;;;;;;5010776;28;20176;-84
2021/08/27 07:11:06;;;;;;;8.63;1.50;;;16.70;99.90;;;;;;5009930;28;20208;-82
2021/08/27 07:13:31;;;;;;;7.93;1.30;;;16.70;99.90;;;;;;5011955;28;20282;-84
2021/08/27 07:15:57;;;;;;;4.45;1.20;;;16.80;99.90;;;;;;5015981;28;20181;-84
2021/08/27 07:18:24;;;;;;;3.75;0.98;;;16.70;99.90;;;;;;5014241;28;20195;-84
2021/08/27 07:20:50;;;;;;;2.85;1.02;;;16.70;99.90;;;;;;5014506;28;20659;-84
2021/08/27 07:23:16;;;;;;;8.25;1.23;;;16.70;99.90;;;;;;5014871;28;20172;-84
2021/08/27 07:25:42;;;;;;;6.28;1.20;;;16.80;99.90;;;;;;5002813;28;20177;-87
2021/08/27 07:28:08;;;;;;;3.75;1.13;;;16.70;99.90;;;;;;4996578;28;20208;-87
2021/08/27 07:30:33;;;;;;;2.53;0.88;;;17.00;99.90;;;;;;4996529;28;20276;-87
2021/08/27 07:32:59;;;;;;;4.70;1.20;;;16.80;99.90;;;;;;4995776;28;20176;-85
2021/08/27 07:35:25;;;;;;;4.93;1.02;;;16.90;99.90;;;;;;4994977;28;20219;-84
2021/08/27 07:37:50;;;;;;;3.08;1.00;;;16.90;99.90;;;;;;4994825;28;20199;-84
2021/08/27 07:40:16;;;;;;;7.82;1.35;;;17.00;99.90;;;;;;4994746;28;20203;-85
2021/08/27 07:42:42;;;;;;;10.80;1.10;;;17.00;99.90;;;;;;4995268;28;20268;-84
2021/08/27 07:45:09;;;;;;;8.95;1.00;;;17.10;99.90;;;;;;5004252;28;20255;-85
2021/08/27 07:47:34;;;;;;;4.80;0.90;;;17.10;99.90;;;;;;5014251;28;20207;-86
2021/08/27 07:50:00;;;;;;;7.32;1.20;;;17.20;99.90;;;;;;5013932;28;20172;-85
2021/08/27 07:52:28;;;;;;;4.28;1.00;;;17.30;99.90;;;;;;5015042;28;20262;-89
2021/08/27 07:54:53;;;;;;;13.02;1.17;;;17.40;99.90;;;;;;5018555;28;20169;-90
2021/08/27 07:57:20;;;;;;;7.13;1.00;;;17.60;99.90;;;;;;5019032;28;20652;-90
2021/08/27 07:59:45;;;;;;;4.57;1.08;;;17.60;99.90;;;;;;5017362;28;20252;-90
2021/08/27 08:02:14;;;;;;;3.53;1.17;;;17.80;99.90;;;;;;5015590;28;20225;-90
2021/08/27 08:04:39;;;;;;;7.38;1.20;;;18.00;99.90;;;;;;5004895;28;20223;-92
2021/08/27 08:07:05;;;;;;;7.70;1.50;;;18.00;99.90;;;;;;5020039;28;20200;-89
2021/08/27 08:09:31;;;;;;;12.93;1.15;;;18.20;99.90;;;;;;5017684;28;20169;-92
2021/08/27 08:11:56;;;;;;;7.00;1.45;;;18.40;99.90;;;;;;5002117;28;20226;-89
2021/08/27 08:14:22;;;;;;;4.57;1.60;;;18.40;99.90;;;;;;5013601;28;20176;-86
2021/08/27 08:16:48;;;;;;;5.70;1.27;;;18.60;99.90;;;;;;4993130;28;20285;-82
2021/08/27 08:19:13;;;;;;;2.38;1.00;;;19.10;99.90;;;;;;4992395;28;20622;-81
2021/08/27 08:21:39;;;;;;;8.77;1.33;;;19.40;99.90;;;;;;4994714;28;20173;-85
2021/08/27 08:24:05;;;;;;;12.77;2.53;;;19.50;99.90;;;;;;4993378;28;20184;-85
2021/08/27 08:26:31;;;;;;;11.07;1.30;;;19.30;99.90;;;;;;4995323;28;20203;-83
2021/08/27 08:28:57;;;;;;;1.88;0.80;;;19.70;99.90;;;;;;4993977;28;20296;-83
2021/08/27 08:31:23;;;;;;;14.10;1.40;;;20.10;99.90;;;;;;4994780;28;20205;-83
2021/08/27 08:33:51;;;;;;;10.75;1.30;;;20.20;99.90;;;;;;4993468;28;20166;-88
2021/08/27 08:36:18;;;;;;;5.53;1.10;;;20.40;99.90;;;;;;4994731;28;20177;-80
2021/08/27 08:38:45;;;;;;;6.00;1.08;;;20.60;99.90;;;;;;4992970;28;20187;-81
2021/08/27 08:41:12;;;;;;;10.50;1.25;;;20.60;99.90;;;;;;4993305;28;20181;-82
2021/08/27 08:43:45;;;;;;;6.18;0.98;;;20.30;99.90;;;;;;4993254;28;20256;-81
2021/08/27 08:46:11;;;;;;;3.58;0.93;;;20.10;99.90;;;;;;4992650;28;20169;-81
2021/08/27 08:48:37;;;;;;;2.05;0.70;;;19.80;99.90;;;;;;4995655;28;20177;-80
2021/08/27 08:51:07;;;;;;;6.65;1.52;;;19.80;99.90;;;;;;4995335;28;20189;-80
2021/08/27 08:53:35;;;;;;;36.13;4.13;;;20.10;99.90;;;;;;4995844;28;20173;-80
2021/08/27 08:56:02;;;;;;;48.13;3.05;;;20.10;99.90;;;;;;4994492;28;20800;-82
2021/08/27 08:58:29;;;;;;;16.45;2.03;;;19.90;99.90;;;;;;4993109;28;20200;-81
2021/08/27 09:00:55;;;;;;;3.13;0.90;;;20.00;99.90;;;;;;5006900;28;20180;-80
2021/08/27 09:03:20;;;;;;;11.70;1.65;;;19.60;99.90;;;;;;5014414;28;20180;-80
2021/08/27 09:05:48;;;;;;;8.63;1.40;;;19.50;99.90;;;;;;5012881;28;20343;-85
2021/08/27 09:08:42;;;;;;;4.75;1.00;;;19.60;99.90;;;;;;5013108;28;20260;-82
2021/08/27 09:11:23;;;;;;;1.00;0.60;;;19.50;99.90;;;;;;5013062;28;20648;-83
2021/08/27 09:13:51;;;;;;;13.15;2.05;;;19.50;99.90;;;;;;5007876;28;20184;-83
2021/08/27 09:16:18;;;;;;;13.07;1.58;;;19.50;99.90;;;;;;5014745;28;20184;-87
2021/08/27 09:18:46;;;;;;;2.35;0.60;;;19.20;99.90;;;;;;5013911;28;20640;-88
2021/08/27 09:21:29;;;;;;;136.65;14.88;;;19.20;99.90;;;;;;5013148;28;20174;-82
2021/08/27 09:24:24;;;;;;;39.28;3.83;;;19.30;99.90;;;;;;5013731;28;20172;-87
2021/08/27 09:26:56;;;;;;;5.10;0.95;;;19.90;99.90;;;;;;5013080;28;20192;-88
2021/08/27 09:29:43;;;;;;;8.45;0.98;;;20.00;99.90;;;;;;5013360;28;20223;-83
2021/08/27 09:32:19;;;;;;;3.20;1.20;;;20.20;99.90;;;;;;5014328;28;20511;-85
2021/08/27 09:34:45;;;;;;;4.45;1.00;;;20.10;99.90;;;;;;5012699;28;20263;-82
2021/08/27 09:37:11;;;;;;;5.20;1.20;;;19.90;99.90;;;;;;5013152;28;20184;-85
2021/08/27 09:39:37;;;;;;;2.33;1.17;;;19.50;99.90;;;;;;5012446;28;20199;-84
2021/08/27 09:42:03;;;;;;;14.10;1.92;;;19.30;99.90;;;;;;5029597;28;20506;-85
2021/08/27 09:44:29;;;;;;;274.90;25.63;;;19.10;99.90;;;;;;5028482;28;20183;-89
2021/08/27 09:46:55;;;;;;;60.95;8.57;;;19.30;99.90;;;;;;5013153;28;20220;-87
2021/08/27 09:49:37;;;;;;;20.45;3.15;;;19.20;99.90;;;;;;5014297;28;20161;-83
2021/08/27 09:52:10;;;;;;;183.77;18.67;;;19.10;99.90;;;;;;5030308;28;20693;-84
2021/08/27 09:54:40;;;;;;;19.85;2.80;;;19.20;99.90;;;;;;5012628;28;20568;-82
2021/08/27 09:57:12;;;;;;;6.80;1.65;;;19.30;99.90;;;;;;5012421;28;20250;-86
2021/08/27 09:59:50;;;;;;;108.07;9.52;;;19.20;99.90;;;;;;5012779;28;20173;-84
2021/08/27 10:02:36;;;;;;;63.33;7.55;;;19.40;99.90;;;;;;5013997;28;20603;-86
2021/08/27 10:05:02;;;;;;;13.32;1.85;;;19.30;99.90;;;;;;5013055;28;20177;-85
2021/08/27 10:07:34;;;;;;;3.53;1.25;;;19.40;99.90;;;;;;5013070;28;20192;-86
2021/08/27 10:10:01;;;;;;;3.50;1.60;;;19.70;99.90;;;;;;5014639;28;20164;-87
2021/08/27 10:12:28;;;;;;;4.97;1.05;;;20.10;99.90;;;;;;5012739;28;20218;-86
2021/08/27 10:14:54;;;;;;;6.30;1.40;;;20.50;99.90;;;;;;5013567;28;20175;-83
2021/08/27 10:17:20;;;;;;;3.15;1.10;;;20.60;99.90;;;;;;5014191;28;20279;-85
2021/08/27 10:19:46;;;;;;;2.40;0.90;;;20.50;99.90;;;;;;5013378;28;20331;-87
2021/08/27 10:22:12;;;;;;;9.65;0.98;;;20.40;99.90;;;;;;5029650;28;20625;-82
2021/08/27 10:24:38;;;;;;;3.03;1.20;;;20.20;99.90;;;;;;5013491;28;20662;-80
2021/08/27 10:27:08;;;;;;;6.70;1.08;;;19.90;99.90;;;;;;5012712;28;20685;-79
2021/08/27 10:29:35;;;;;;;1.80;0.60;;;19.90;99.90;;;;;;5013241;28;20180;-79
2021/08/27 10:32:01;;;;;;;3.55;1.08;;;20.10;99.90;;;;;;5011431;28;20208;-79
2021/08/27 10:34:41;;;;;;;1.27;0.85;;;20.60;99.90;;;;;;5012655;28;20200;-79
2021/08/27 10:37:08;;;;;;;2.42;1.00;;;20.70;99.90;;;;;;5010994;28;20204;-80
2021/08/27 10:39:36;;;;;;;12.45;1.25;;;20.80;99.90;;;;;;5012537;28;20219;-79
2021/08/27 10:42:03;;;;;;;22.40;2.47;;;20.40;99.90;;;;;;5012754;28;20160;-81
2021/08/27 10:44:45;;;;;;;2.70;0.95;;;20.20;99.90;;;;;;5012823;28;20165;-79
2021/08/27 10:47:11;;;;;;;1.95;0.73;;;20.20;99.90;;;;;;5012161;28;20547;-82
2021/08/27 10:49:46;;;;;;;2.65;1.13;;;20.50;99.90;;;;;;5016668;28;20172;-80
2021/08/27 10:52:29;;;;;;;6.85;2.00;;;20.90;99.90;;;;;;5016436;28;20554;-79
2021/08/27 10:55:12;;;;;;;19.52;1.60;;;20.90;99.90;;;;;;5016265;28;20243;-79
2021/08/27 10:57:56;;;;;;;24.52;2.22;;;21.10;99.90;;;;;;5016295;28;20645;-80
2021/08/27 11:00:47;;;;;;;32.53;3.00;;;21.10;99.90;;;;;;5016363;28;20530;-79
2021/08/27 11:03:15;;;;;;;6.47;1.13;;;20.90;99.90;;;;;;5014904;28;20183;-79
2021/08/27 11:05:44;;;;;;;2.08;0.95;;;20.90;99.90;;;;;;5014956;28;20172;-80
2021/08/27 11:08:14;;;;;;;2.15;0.50;;;20.80;99.90;;;;;;5015999;28;20247;-81
2021/08/27 11:10:43;;;;;;;2.22;0.70;;;20.70;99.90;;;;;;5015894;28;20589;-78
2021/08/27 11:13:11;;;;;;;1.98;0.88;;;20.30;99.90;;;;;;5015796;28;20637;-78
2021/08/27 11:15:37;;;;;;;3.38;1.45;;;20.10;99.90;;;;;;5016288;28;20211;-80
2021/08/27 11:18:32;;;;;;;6.28;1.92;;;20.30;99.90;;;;;;5015986;28;20247;-78
2021/08/27 11:20:57;;;;;;;1.17;0.80;;;20.60;99.90;;;;;;5016005;28;20191;-78
2021/08/27 11:23:23;;;;;;;2.65;1.13;;;20.60;99.90;;;;;;5016423;28;20518;-79
2021/08/27 11:26:04;;;;;;;4.88;1.50;;;20.80;99.90;;;;;;5015702;28;20538;-78
2021/08/27 11:28:32;;;;;;;1.33;0.90;;;20.90;99.90;;;;;;5015225;28;20633;-78
2021/08/27 11:31:06;;;;;;;4.55;1.10;;;20.70;99.90;;;;;;5015884;28;20258;-79
2021/08/27 11:33:41;;;;;;;3.13;0.82;;;20.90;99.90;;;;;;5014108;28;20172;-78
2021/08/27 11:36:07;;;;;;;22.98;1.15;;;20.70;99.90;;;;;;5014381;28;20198;-78
2021/08/27 11:38:33;;;;;;;14.68;0.88;;;20.40;99.90;;;;;;5015486;28;20220;-78
2021/08/27 11:41:00;;;;;;;3.78;0.63;;;19.80;99.90;;;;;;5015478;28;20271;-78
2021/08/27 11:43:45;;;;;;;1.52;0.75;;;19.50;99.90;;;;;;5017276;28;20211;-77
2021/08/27 11:46:27;;;;;;;3.13;0.85;;;19.30;99.90;;;;;;5019229;28;20164;-79
2021/08/27 11:49:26;;;;;;;2.15;0.85;;;19.20;99.90;;;;;;5019349;28;20536;-79
2021/08/27 11:52:13;;;;;;;2.20;1.27;;;19.40;99.90;;;;;;5014587;28;20212;-80
2021/08/27 11:54:40;;;;;;;17.90;1.50;;;19.50;99.90;;;;;;5016216;28;20195;-77
2021/08/27 11:57:14;;;;;;;8.05;1.13;;;19.50;99.90;;;;;;5015478;28;20188;-80
2021/08/27 11:59:41;;;;;;;1.42;0.88;;;19.60;99.90;;;;;;5014657;28;20211;-80
2021/08/27 12:02:18;;;;;;;3.35;1.00;;;19.90;99.90;;;;;;5015183;28;20548;-77
2021/08/27 12:04:43;;;;;;;4.93;1.17;;;20.30;99.90;;;;;;5015556;28;20164;-78
2021/08/27 12:07:14;;;;;;;5.63;1.45;;;20.40;99.90;;;;;;5015618;28;20192;-79
2021/08/27 12:09:41;;;;;;;11.40;1.20;;;20.50;99.90;;;;;;5014982;28;20179;-78
2021/08/27 12:12:27;;;;;;;1.98;1.05;;;20.80;99.90;;;;;;5014824;28;20568;-78
2021/08/27 12:14:53;;;;;;;11.20;1.45;;;20.60;99.90;;;;;;5014038;28;20536;-79
2021/08/27 12:17:21;;;;;;;36.40;4.07;;;20.60;99.90;;;;;;5015568;28;20192;-80
2021/08/27 12:19:48;;;;;;;5.80;1.30;;;20.80;99.90;;;;;;5013371;28;20180;-80
2021/08/27 12:22:16;;;;;;;7.78;1.88;;;20.70;99.90;;;;;;5013278;28;20299;-80
2021/08/27 12:24:42;;;;;;;18.25;2.88;;;20.60;99.90;;;;;;5007991;28;20165;-81
2021/08/27 12:27:09;;;;;;;9.77;2.15;;;20.50;99.90;;;;;;4995970;28;20267;-84
2021/08/27 12:29:34;;;;;;;15.48;1.77;;;20.60;99.90;;;;;;4996905;28;20168;-79
2021/08/27 12:32:00;;;;;;;11.90;1.95;;;21.00;99.90;;;;;;4994717;28;20209;-79
2021/08/27 12:34:26;;;;;;;7.78;1.38;;;21.20;99.90;;;;;;4995086;28;20165;-79
2021/08/27 12:36:52;;;;;;;13.57;2.53;;;21.40;99.90;;;;;;4992962;28;20193;-79
2021/08/27 12:39:18;;;;;;;12.82;2.42;;;21.60;99.90;;;;;;4994492;28;20709;-79
2021/08/27 12:41:43;;;;;;;5.13;1.65;;;21.70;99.90;;;;;;4995062;28;20304;-79
2021/08/27 12:44:11;;;;;;;151.43;15.82;;;21.40;99.90;;;;;;4994547;28;20196;-79
2021/08/27 12:46:39;;;;;;;4.22;1.10;;;21.50;99.90;;;;;;4994753;28;20201;-79
2021/08/27 12:49:13;;;;;;;9.35;1.40;;;21.00;99.90;;;;;;4993312;28;20180;-79
2021/08/27 12:51:44;;;;;;;4.07;1.10;;;20.60;99.90;;;;;;4993179;28;20253;-79